createdAt,value
2019-01-04T00:01:30.884Z,78.90
2019-01-04T00:04:00.625Z,79.09
2019-01-04T00:06:29.014Z,79.30
2019-01-04T00:08:57.412Z,79.23
2019-01-04T00:11:26.038Z,79.19
2019-01-04T00:13:54.853Z,79.25
2019-01-04T00:16:23.641Z,79.11
2019-01-04T00:18:52.330Z,79.11
2019-01-04T00:21:21.016Z,79.25
2019-01-04T00:23:49.399Z,79.11
2019-01-04T00:26:17.980Z,79.09
2019-01-04T00:28:46.669Z,79.07
2019-01-04T00:31:15.055Z,79.04
2019-01-04T00:33:43.835Z,78.97
2019-01-04T00:38:39.793Z,79.00
2019-01-04T00:41:08.465Z,79.11
2019-01-04T00:43:37.141Z,79.21
2019-01-04T00:46:05.657Z,79.31
2019-01-04T00:48:34.307Z,79.56
2019-01-04T00:51:03.019Z,79.52
2019-01-04T00:53:31.388Z,79.76
2019-01-04T00:56:21.051Z,79.74
2019-01-04T00:59:25.670Z,79.80
2019-01-04T01:02:05.841Z,79.69
2019-01-04T01:04:57.699Z,79.76
2019-01-04T01:07:32.196Z,79.78
2019-01-04T01:10:20.945Z,79.84
2019-01-04T01:13:07.438Z,79.87
2019-01-04T01:15:54.139Z,80.13
2019-01-04T01:18:42.053Z,80.39
2019-01-04T01:21:40.918Z,80.57
2019-01-04T01:24:24.121Z,80.55
2019-01-04T01:27:15.157Z,80.90
2019-01-04T01:30:03.212Z,80.88
2019-01-04T01:32:54.228Z,81.05
2019-01-04T01:35:45.208Z,81.32
2019-01-04T01:38:48.584Z,81.21
2019-01-04T01:41:38.272Z,81.00
2019-01-04T01:44:36.955Z,81.00
2019-01-04T01:47:17.223Z,80.93
2019-01-04T01:50:04.789Z,80.81
2019-01-04T01:52:36.502Z,80.81
2019-01-04T01:55:05.556Z,80.92
2019-01-04T01:57:34.643Z,80.98
2019-01-04T02:00:03.686Z,80.86
2019-01-04T02:02:32.367Z,80.85
2019-01-04T02:05:01.054Z,81.02
2019-01-04T02:07:29.454Z,81.20
2019-01-04T02:09:57.941Z,81.22
2019-01-04T02:12:26.703Z,81.50
2019-01-04T02:14:55.100Z,81.68
2019-01-04T02:17:23.481Z,81.70
2019-01-04T02:19:52.180Z,81.51
2019-01-04T02:22:20.599Z,81.50
2019-01-04T02:24:48.989Z,81.36
2019-01-04T02:27:17.391Z,81.35
2019-01-04T02:29:45.776Z,81.07
2019-01-04T02:32:14.155Z,80.85
2019-01-04T02:34:43.033Z,80.83
2019-01-04T02:37:11.431Z,80.50
2019-01-04T02:39:39.813Z,80.45
2019-01-04T02:42:08.543Z,80.32
2019-01-04T02:44:37.367Z,80.11
2019-01-04T02:47:06.059Z,80.01
2019-01-04T02:49:34.454Z,79.85
2019-01-04T02:52:03.220Z,79.77
2019-01-04T02:54:31.906Z,79.70
2019-01-04T02:57:00.292Z,79.52
2019-01-04T02:59:28.683Z,79.43
2019-01-04T03:01:57.144Z,79.47
2019-01-04T03:04:26.246Z,79.47
2019-01-04T03:06:54.930Z,79.49
2019-01-04T03:09:23.618Z,79.58
2019-01-04T03:11:52.009Z,79.18
2019-01-04T03:14:20.567Z,79.28
2019-01-04T03:16:49.264Z,79.11
2019-01-04T03:19:17.659Z,78.90
2019-01-04T03:21:46.258Z,78.76
2019-01-04T03:24:14.918Z,78.77
2019-01-04T03:26:43.308Z,78.81
2019-01-04T03:29:12.080Z,79.09
2019-01-04T03:31:40.976Z,79.45
2019-01-04T03:34:09.372Z,79.53
2019-01-04T03:36:37.767Z,79.48
2019-01-04T03:39:06.824Z,79.31
2019-01-04T03:41:35.211Z,79.34
2019-01-04T03:44:03.999Z,79.61
2019-01-04T03:46:32.392Z,79.60
2019-01-04T03:49:00.776Z,79.56
2019-01-04T03:51:29.160Z,79.97
2019-01-04T03:53:58.127Z,79.96
2019-01-04T03:56:26.618Z,80.03
2019-01-04T03:58:55.018Z,79.96
2019-01-04T04:01:23.584Z,79.85
2019-01-04T04:03:51.983Z,79.59
2019-01-04T04:06:20.368Z,79.48
2019-01-04T04:08:48.751Z,79.33
2019-01-04T04:11:17.157Z,79.33
2019-01-04T04:13:45.546Z,79.09
2019-01-04T04:16:14.253Z,79.10
2019-01-04T04:18:42.715Z,79.44
2019-01-04T04:21:11.118Z,78.95
2019-01-04T04:23:39.500Z,79.06
2019-01-04T04:26:07.885Z,79.15
2019-01-04T04:28:37.069Z,79.09
2019-01-04T04:31:05.455Z,79.09
2019-01-04T04:33:33.848Z,78.95
2019-01-04T04:36:02.518Z,78.64
2019-01-04T04:38:30.905Z,78.50
2019-01-04T04:40:59.296Z,78.37
2019-01-04T04:43:27.958Z,78.14
2019-01-04T04:45:56.642Z,78.22
2019-01-04T04:48:25.043Z,78.30
2019-01-04T04:50:53.516Z,78.32
2019-01-04T04:53:22.063Z,78.33
2019-01-04T04:55:50.509Z,78.17
2019-01-04T04:58:19.660Z,78.15
2019-01-04T05:00:48.349Z,78.12
2019-01-04T05:03:17.042Z,77.86
2019-01-04T05:05:46.129Z,77.98
2019-01-04T05:08:15.021Z,77.81
2019-01-04T05:10:43.412Z,77.93
2019-01-04T05:13:13.620Z,77.89
2019-01-04T05:15:42.021Z,77.96
2019-01-04T05:18:10.434Z,77.75
2019-01-04T05:20:38.836Z,77.93
2019-01-04T05:23:07.716Z,77.90
2019-01-04T05:25:36.439Z,77.81
2019-01-04T05:28:05.142Z,77.99
2019-01-04T05:30:34.231Z,78.24
2019-01-04T05:33:02.616Z,78.26
2019-01-04T05:35:31.005Z,78.25
2019-01-04T05:37:59.389Z,78.49
2019-01-04T05:40:27.783Z,78.64
2019-01-04T05:42:56.422Z,78.53
2019-01-04T05:45:24.817Z,78.44
2019-01-04T05:47:53.222Z,78.26
2019-01-04T05:50:21.614Z,78.02
2019-01-04T05:52:50.351Z,78.00
2019-01-04T05:55:18.755Z,78.01
2019-01-04T05:57:47.150Z,77.81
2019-01-04T06:00:15.546Z,77.82
2019-01-04T06:02:43.920Z,77.86
2019-01-04T06:05:12.362Z,77.95
2019-01-04T06:07:41.240Z,77.89
2019-01-04T06:10:09.631Z,77.50
2019-01-04T06:12:38.031Z,77.44
2019-01-04T06:15:06.955Z,77.57
2019-01-04T06:17:35.775Z,77.55
2019-01-04T06:20:06.415Z,77.53
2019-01-04T06:22:34.821Z,77.42
2019-01-04T06:25:03.783Z,77.51
2019-01-04T06:27:32.274Z,77.58
2019-01-04T06:30:01.055Z,77.72
2019-01-04T06:32:29.446Z,77.76
2019-01-04T06:34:57.842Z,78.12
2019-01-04T06:37:26.899Z,78.27
2019-01-04T06:39:55.285Z,78.47
2019-01-04T06:42:23.678Z,78.50
2019-01-04T06:44:52.361Z,78.46
2019-01-04T06:47:20.745Z,78.50
2019-01-04T06:49:49.131Z,78.50
2019-01-04T06:52:17.583Z,78.55
2019-01-04T06:55:17.862Z,78.50
2019-01-04T06:57:46.948Z,78.60
2019-01-04T07:00:15.598Z,78.69
2019-01-04T07:02:43.982Z,78.97
2019-01-04T07:05:12.386Z,78.97
2019-01-04T07:07:41.043Z,79.08
2019-01-04T07:10:10.461Z,79.04
2019-01-04T07:12:38.855Z,78.92
2019-01-04T07:15:07.774Z,78.79
2019-01-04T07:17:36.179Z,78.74
2019-01-04T07:20:06.300Z,79.14
2019-01-04T07:22:34.687Z,79.07
2019-01-04T07:25:03.306Z,79.14
2019-01-04T07:27:31.694Z,79.09
2019-01-04T07:30:00.224Z,79.13
2019-01-04T07:32:28.751Z,79.28
2019-01-04T07:34:57.141Z,79.23
2019-01-04T07:37:25.539Z,79.09
2019-01-04T07:39:55.002Z,79.09
2019-01-04T07:42:23.695Z,79.02
2019-01-04T07:44:52.082Z,78.85
2019-01-04T07:47:20.473Z,78.75
2019-01-04T07:49:49.314Z,78.77
2019-01-04T07:52:18.373Z,78.73
2019-01-04T07:54:46.764Z,78.92
2019-01-04T07:57:15.159Z,78.95
2019-01-04T07:59:43.930Z,79.02
2019-01-04T08:02:34.052Z,79.04
2019-01-04T08:05:02.447Z,79.05
2019-01-04T08:07:30.920Z,79.02
2019-01-04T08:09:59.321Z,79.07
2019-01-04T08:12:27.890Z,79.14
2019-01-04T08:14:56.275Z,79.09
2019-01-04T08:17:24.856Z,78.85
2019-01-04T08:19:53.328Z,78.84
2019-01-04T08:22:21.710Z,78.69
2019-01-04T08:24:50.113Z,78.67
2019-01-04T08:27:18.500Z,78.66
2019-01-04T08:29:47.171Z,78.29
2019-01-04T08:32:15.827Z,78.45
2019-01-04T08:34:44.214Z,78.21
2019-01-04T08:37:12.615Z,78.66
2019-01-04T08:39:41.507Z,78.73
2019-01-04T08:42:09.929Z,78.55
2019-01-04T08:44:38.314Z,78.95
2019-01-04T08:47:06.788Z,79.11
2019-01-04T08:49:35.607Z,79.37
2019-01-04T08:52:03.988Z,79.51
2019-01-04T08:54:32.388Z,79.53
2019-01-04T08:57:01.066Z,79.30
2019-01-04T08:59:29.445Z,79.22
2019-01-04T09:01:57.845Z,79.23
2019-01-04T09:04:26.490Z,79.60
2019-01-04T09:06:55.189Z,79.71
2019-01-04T09:09:23.593Z,79.83
2019-01-04T09:11:51.975Z,80.05
2019-01-04T09:14:20.365Z,79.99
2019-01-04T09:16:49.102Z,80.25
2019-01-04T09:19:17.488Z,80.34
2019-01-04T09:21:46.308Z,80.32
2019-01-04T09:24:15.370Z,80.27
2019-01-04T09:26:43.755Z,80.12
2019-01-04T09:29:12.147Z,80.28
2019-01-04T09:31:40.541Z,80.27
2019-01-04T09:34:08.921Z,80.27
2019-01-04T09:36:37.319Z,80.31
2019-01-04T09:39:07.901Z,80.62
2019-01-04T09:41:37.813Z,80.82
2019-01-04T09:44:06.490Z,80.60
2019-01-04T09:46:35.021Z,80.98
2019-01-04T09:49:03.512Z,81.33
2019-01-04T09:51:32.217Z,81.23
2019-01-04T09:54:02.400Z,81.35
2019-01-04T09:56:31.027Z,81.40
2019-01-04T09:59:01.440Z,81.19
2019-01-04T10:01:30.479Z,81.31
2019-01-04T10:04:01.289Z,81.42
2019-01-04T10:06:30.878Z,81.47
2019-01-04T10:08:59.860Z,81.28
2019-01-04T10:11:28.528Z,81.38
2019-01-04T10:13:57.478Z,81.19
2019-01-04T10:16:25.868Z,81.02
2019-01-04T10:18:55.305Z,81.21
2019-01-04T10:21:23.690Z,81.30
2019-01-04T10:23:52.439Z,81.56
2019-01-04T10:26:20.824Z,81.52
2019-01-04T10:28:51.021Z,81.39
2019-01-04T10:31:19.414Z,81.67
2019-01-04T10:33:47.808Z,81.50
2019-01-04T10:36:16.186Z,81.51
2019-01-04T10:38:44.586Z,81.70
2019-01-04T10:41:15.633Z,81.81
2019-01-04T10:43:44.025Z,81.56
2019-01-04T10:46:12.414Z,81.35
2019-01-04T10:48:40.813Z,81.68
2019-01-04T10:51:09.201Z,81.56
2019-01-04T10:53:37.600Z,81.87
2019-01-04T10:56:06.227Z,81.64
2019-01-04T10:58:34.618Z,81.17
2019-01-04T11:01:03.072Z,81.36
2019-01-04T11:03:31.547Z,81.73
2019-01-04T11:05:59.934Z,81.77
2019-01-04T11:08:28.588Z,81.59
2019-01-04T11:10:56.973Z,81.30
2019-01-04T11:13:25.369Z,81.63
2019-01-04T11:15:53.751Z,81.59
2019-01-04T11:18:22.155Z,81.07
2019-01-04T11:20:50.737Z,81.10
2019-01-04T11:23:37.037Z,81.11
2019-01-04T11:26:08.479Z,80.95
2019-01-04T11:28:42.836Z,80.39
2019-01-04T11:31:32.225Z,80.55
2019-01-04T11:34:19.988Z,80.39
2019-01-04T11:37:14.235Z,80.20
2019-01-04T11:40:17.616Z,80.30
2019-01-04T11:43:25.960Z,80.57
2019-01-04T11:46:09.172Z,80.73
2019-01-04T11:48:52.620Z,80.68
2019-01-04T11:51:36.346Z,80.98
2019-01-04T11:54:07.267Z,81.29
2019-01-04T11:56:35.912Z,81.19
2019-01-04T11:59:04.592Z,81.02
2019-01-04T12:01:32.974Z,81.10
2019-01-04T12:04:02.157Z,81.17
2019-01-04T12:06:30.838Z,81.14
2019-01-04T12:08:59.709Z,80.90
2019-01-04T12:11:28.101Z,80.76
2019-01-04T12:13:56.894Z,80.81
2019-01-04T12:16:25.284Z,80.61
2019-01-04T12:18:53.675Z,80.20
2019-01-04T12:21:22.207Z,80.11
2019-01-04T12:23:50.592Z,80.22
2019-01-04T12:26:18.984Z,80.32
2019-01-04T12:28:47.379Z,80.70
2019-01-04T12:31:15.771Z,79.94
2019-01-04T12:33:44.161Z,79.41
2019-01-04T12:36:13.019Z,79.82
2019-01-04T12:38:41.705Z,79.86
2019-01-04T12:41:10.096Z,79.53
2019-01-04T12:43:39.313Z,79.68
2019-01-04T12:46:07.965Z,79.21
2019-01-04T12:48:36.342Z,79.46
2019-01-04T12:51:06.367Z,79.00
2019-01-04T12:53:35.459Z,79.21
2019-01-04T12:56:04.149Z,79.54
2019-01-04T12:58:32.534Z,79.35
2019-01-04T13:01:01.035Z,79.40
2019-01-04T13:03:29.774Z,79.23
2019-01-04T13:05:58.180Z,79.39
2019-01-04T13:08:26.968Z,78.86
2019-01-04T13:10:55.381Z,78.39
2019-01-04T13:13:23.790Z,78.17
2019-01-04T13:15:52.168Z,78.43
2019-01-04T13:18:21.023Z,78.08
2019-01-04T13:20:49.416Z,77.97
2019-01-04T13:23:17.794Z,78.47
2019-01-04T13:25:46.186Z,78.14
2019-01-04T13:28:14.568Z,78.50
2019-01-04T13:30:43.292Z,78.39
2019-01-04T13:33:11.757Z,78.69
2019-01-04T13:35:40.140Z,78.19
2019-01-04T13:38:08.541Z,78.33
2019-01-04T13:40:38.146Z,78.21
2019-01-04T13:43:07.308Z,78.42
2019-01-04T13:45:36.074Z,78.32
2019-01-04T13:48:04.948Z,78.43
2019-01-04T13:50:33.336Z,78.31
2019-01-04T13:53:04.786Z,78.42
2019-01-04T13:55:33.186Z,78.95
2019-01-04T13:58:03.397Z,79.04
2019-01-04T14:00:31.797Z,79.33
2019-01-04T14:03:01.590Z,79.70
2019-01-04T14:05:30.330Z,79.46
2019-01-04T14:07:58.726Z,79.52
2019-01-04T14:10:27.427Z,79.42
2019-01-04T14:12:56.080Z,79.37
2019-01-04T14:15:25.002Z,80.05
2019-01-04T14:17:54.435Z,80.67
2019-01-04T14:20:23.051Z,80.93
2019-01-04T14:22:52.180Z,80.98
2019-01-04T14:25:20.659Z,81.07
2019-01-04T14:27:49.062Z,81.25
2019-01-04T14:30:17.680Z,81.16
2019-01-04T14:32:46.391Z,81.33
2019-01-04T14:35:15.276Z,81.59
2019-01-04T14:37:43.763Z,81.78
2019-01-04T14:40:12.322Z,82.15
2019-01-04T14:42:40.964Z,82.03
2019-01-04T14:45:09.598Z,82.13
2019-01-04T14:47:37.991Z,82.26
2019-01-04T14:50:09.394Z,82.21
2019-01-04T14:52:39.048Z,82.25
2019-01-04T14:55:07.827Z,82.28
2019-01-04T14:57:36.226Z,82.40
2019-01-04T15:00:08.817Z,82.51
2019-01-04T15:02:37.499Z,82.84
2019-01-04T15:05:07.090Z,82.64
2019-01-04T15:07:35.587Z,82.62
2019-01-04T15:10:06.208Z,82.55
2019-01-04T15:12:34.610Z,82.48
2019-01-04T15:15:03.454Z,82.58
2019-01-04T15:17:31.853Z,82.50
2019-01-04T15:20:00.360Z,82.54
2019-01-04T15:22:28.743Z,82.62
2019-01-04T15:24:57.138Z,82.58
2019-01-04T15:27:25.605Z,82.66
2019-01-04T15:29:54.297Z,82.54
2019-01-04T15:32:22.686Z,82.47
2019-01-04T15:34:51.095Z,82.46
2019-01-04T15:37:19.580Z,82.61
2019-01-04T15:39:47.960Z,82.69
2019-01-04T15:42:16.362Z,82.51
2019-01-04T15:44:45.048Z,82.24
2019-01-04T15:47:13.446Z,82.27
2019-01-04T15:49:42.216Z,82.15
2019-01-04T15:52:10.624Z,81.95
2019-01-04T15:54:39.624Z,81.99
2019-01-04T15:57:08.019Z,82.29
2019-01-04T15:59:36.456Z,82.25
2019-01-04T16:02:04.920Z,82.39
2019-01-04T16:04:33.307Z,82.60
2019-01-04T16:07:01.704Z,82.73
2019-01-04T16:09:30.905Z,82.97
2019-01-04T16:11:59.290Z,83.12
2019-01-04T16:14:27.884Z,83.12
2019-01-04T16:16:56.263Z,83.16
2019-01-04T16:19:24.656Z,83.06
2019-01-04T16:21:53.052Z,83.08
2019-01-04T16:24:21.797Z,83.00
2019-01-04T16:26:50.179Z,83.07
2019-01-04T16:29:18.577Z,82.98
2019-01-04T16:31:47.239Z,82.88
2019-01-04T16:34:15.621Z,82.90
2019-01-04T16:36:44.013Z,82.99
2019-01-04T16:39:12.453Z,83.33
2019-01-04T16:41:40.831Z,83.19
2019-01-04T16:44:09.227Z,83.25
2019-01-04T16:46:40.959Z,83.29
2019-01-04T16:49:09.590Z,83.26
2019-01-04T16:51:37.965Z,82.90
2019-01-04T16:54:06.567Z,82.75
2019-01-04T16:56:35.245Z,83.12
2019-01-04T16:59:04.041Z,83.37
2019-01-04T17:01:32.610Z,83.29
2019-01-04T17:04:01.609Z,83.09
2019-01-04T17:06:33.098Z,83.09
2019-01-04T17:09:01.629Z,83.02
2019-01-04T17:11:30.025Z,82.81
2019-01-04T17:14:00.990Z,82.78
2019-01-04T17:16:35.443Z,83.02
2019-01-04T17:19:04.143Z,82.96
2019-01-04T17:21:32.693Z,82.83
2019-01-04T17:24:01.861Z,83.20
2019-01-04T17:26:30.297Z,83.14
2019-01-04T17:28:58.794Z,83.06
2019-01-04T17:31:27.575Z,82.98
2019-01-04T17:33:55.989Z,82.88
2019-01-04T17:36:24.483Z,82.79
2019-01-04T17:38:53.312Z,83.03
2019-01-04T17:41:21.731Z,83.09
2019-01-04T17:43:50.145Z,82.93
2019-01-04T17:46:18.914Z,82.80
2019-01-04T17:48:47.363Z,82.87
2019-01-04T17:51:15.751Z,83.18
2019-01-04T17:53:44.516Z,83.13
2019-01-04T17:56:13.570Z,82.76
2019-01-04T17:58:41.997Z,82.53
2019-01-04T18:01:10.379Z,82.63
2019-01-04T18:03:38.790Z,82.80
2019-01-04T18:06:07.457Z,82.79
2019-01-04T18:08:36.231Z,82.69
2019-01-04T18:11:04.626Z,82.75
2019-01-04T18:13:33.018Z,82.60
2019-01-04T18:16:01.899Z,82.58
2019-01-04T18:18:31.605Z,82.48
2019-01-04T18:20:59.963Z,82.25
2019-01-04T18:23:28.555Z,82.15
2019-01-04T18:25:56.944Z,82.43
2019-01-04T18:28:25.330Z,82.58
2019-01-04T18:30:54.154Z,82.29
2019-01-04T18:33:22.958Z,82.34
2019-01-04T18:35:51.351Z,82.26
2019-01-04T18:38:20.096Z,82.62
2019-01-04T18:40:48.764Z,82.62
2019-01-04T18:43:17.447Z,82.63
2019-01-04T18:45:45.882Z,82.39
2019-01-04T18:48:14.331Z,82.43
2019-01-04T18:50:42.716Z,82.42
2019-01-04T18:53:11.105Z,82.29
2019-01-04T18:55:40.228Z,82.34
2019-01-04T18:58:08.753Z,82.45
2019-01-04T19:00:37.155Z,82.62
2019-01-04T19:03:05.549Z,82.81
2019-01-04T19:05:34.148Z,82.93
2019-01-04T19:08:02.554Z,82.83
2019-01-04T19:10:31.745Z,83.33
2019-01-04T19:13:00.173Z,83.25
2019-01-04T19:15:28.562Z,83.50
2019-01-04T19:17:56.970Z,83.36
2019-01-04T19:20:25.361Z,83.36
2019-01-04T19:22:54.155Z,83.52
2019-01-04T19:25:22.626Z,83.24
2019-01-04T19:27:51.006Z,83.31
2019-01-04T19:30:19.410Z,83.10
2019-01-04T19:32:47.816Z,82.62
2019-01-04T19:35:16.222Z,82.55
2019-01-04T19:37:45.043Z,82.77
2019-01-04T19:40:13.505Z,82.82
2019-01-04T19:42:41.909Z,82.88
2019-01-04T19:45:10.894Z,83.21
2019-01-04T19:47:39.303Z,83.10
2019-01-04T19:50:16.216Z,83.30
2019-01-04T19:52:44.946Z,83.44
2019-01-04T19:55:13.342Z,83.41
2019-01-04T19:57:41.745Z,83.54
2019-01-04T20:00:10.792Z,83.68
2019-01-04T20:02:39.382Z,83.88
2019-01-04T20:05:08.256Z,83.84
2019-01-04T20:08:10.038Z,83.79
2019-01-04T20:11:05.666Z,83.63
2019-01-04T20:14:04.744Z,84.03
2019-01-04T20:16:49.905Z,84.20
2019-01-04T20:19:36.045Z,84.52
2019-01-04T20:22:15.260Z,84.56
2019-01-04T20:25:01.626Z,84.36
2019-01-04T20:27:46.873Z,84.20
2019-01-04T20:30:19.892Z,84.18
2019-01-04T20:33:06.311Z,84.10
2019-01-04T20:35:36.554Z,84.12
2019-01-04T20:38:19.253Z,84.36
2019-01-04T20:41:00.970Z,84.42
2019-01-04T20:43:47.549Z,84.59
2019-01-04T20:46:17.573Z,84.61
2019-01-04T20:48:47.602Z,84.77
2019-01-04T20:51:20.371Z,84.76
2019-01-04T20:53:50.688Z,84.61
2019-01-04T20:56:36.832Z,84.51
2019-01-04T20:59:09.769Z,84.55
2019-01-04T21:01:39.807Z,84.50
2019-01-04T21:04:15.259Z,84.59
2019-01-04T21:06:54.463Z,84.48
2019-01-04T21:09:27.883Z,84.35
2019-01-04T21:11:57.941Z,84.25
2019-01-04T21:14:30.966Z,83.95
2019-01-04T21:17:01.295Z,83.95
2019-01-04T21:19:33.979Z,84.05
2019-01-04T21:22:20.150Z,84.08
2019-01-04T21:24:50.472Z,84.13
2019-01-04T21:27:35.709Z,84.08
2019-01-04T21:30:09.578Z,84.03
2019-01-04T21:32:54.557Z,84.18
2019-01-04T21:35:42.993Z,84.02
2019-01-04T21:38:19.109Z,84.03
2019-01-04T21:41:04.134Z,84.12
2019-01-04T21:43:40.383Z,84.08
2019-01-04T21:46:22.387Z,84.43
2019-01-04T21:49:01.511Z,84.38
2019-01-04T21:51:39.030Z,84.27
2019-01-04T21:54:21.822Z,84.05
2019-01-04T21:56:55.025Z,84.47
2019-01-04T21:59:31.150Z,84.48
2019-01-04T22:02:07.345Z,84.40
2019-01-04T22:04:54.295Z,84.32
2019-01-04T22:07:29.734Z,84.36
2019-01-04T22:10:03.614Z,84.37
2019-01-04T22:12:36.907Z,84.48
2019-01-04T22:15:13.020Z,84.46
2019-01-04T22:17:59.459Z,84.47
2019-01-04T22:20:46.126Z,84.41
2019-01-04T22:23:21.596Z,84.41
2019-01-04T22:26:06.314Z,84.46
2019-01-04T22:28:37.708Z,84.50
2019-01-04T22:31:10.819Z,84.69
2019-01-04T22:33:41.137Z,84.87
2019-01-04T22:36:11.164Z,85.13
2019-01-04T22:38:48.029Z,84.94
2019-01-04T22:41:23.748Z,84.95
2019-01-04T22:43:59.508Z,84.97
2019-01-04T22:46:38.634Z,85.18
2019-01-04T22:49:08.674Z,85.11
2019-01-04T22:51:45.370Z,85.04
2019-01-04T22:54:18.768Z,85.09
2019-01-04T22:56:48.870Z,84.94
2019-01-04T22:59:35.022Z,84.97
2019-01-04T23:02:11.242Z,85.16
2019-01-04T23:04:53.608Z,85.28
2019-01-04T23:07:23.763Z,85.28
2019-01-04T23:09:56.548Z,85.18
2019-01-04T23:12:42.057Z,85.15
2019-01-04T23:15:28.120Z,85.40
2019-01-04T23:18:14.838Z,85.45
2019-01-04T23:20:44.862Z,85.28
2019-01-04T23:23:17.886Z,85.54
2019-01-04T23:26:04.234Z,85.64
2019-01-04T23:28:50.421Z,85.51
2019-01-04T23:31:26.802Z,85.44
2019-01-04T23:34:12.986Z,85.42
2019-01-04T23:36:43.013Z,85.64
2019-01-04T23:39:13.379Z,85.74
2019-01-04T23:42:00.652Z,85.71
2019-01-04T23:44:36.940Z,85.53
2019-01-04T23:47:16.470Z,85.38
2019-01-04T23:49:46.998Z,85.34
2019-01-04T23:52:29.813Z,85.23
2019-01-04T23:55:14.845Z,85.51
2019-01-04T23:57:50.664Z,85.40
